createdAt,value
2018-10-18T00:01:35.094Z,94.49
2018-10-18T00:04:04.399Z,94.81
2018-10-18T00:06:33.759Z,95.53
2018-10-18T00:09:03.066Z,95.22
2018-10-18T00:11:32.386Z,95.05
2018-10-18T00:14:01.774Z,95.69
2018-10-18T00:16:31.063Z,95.08
2018-10-18T00:19:00.425Z,95.88
2018-10-18T00:21:29.886Z,96.07
2018-10-18T00:23:59.296Z,95.96
2018-10-18T00:26:28.629Z,95.88
2018-10-18T00:28:58.129Z,96.48
2018-10-18T00:31:27.885Z,95.92
2018-10-18T00:33:57.474Z,96.75
2018-10-18T00:36:26.907Z,97.25
2018-10-18T00:38:56.306Z,96.99
2018-10-18T00:41:25.888Z,96.16
2018-10-18T00:43:55.425Z,96.74
2018-10-18T00:46:24.821Z,97.34
2018-10-18T00:48:54.390Z,98.55
2018-10-18T00:51:24.074Z,98.41
2018-10-18T00:53:53.618Z,98.56
2018-10-18T00:56:23.226Z,98.71
2018-10-18T00:58:52.983Z,98.12
2018-10-18T01:01:22.834Z,98.37
2018-10-18T01:03:52.606Z,97.75
2018-10-18T01:06:22.152Z,97.30
2018-10-18T01:08:51.874Z,97.40
2018-10-18T01:11:21.780Z,97.96
2018-10-18T01:13:51.289Z,97.99
2018-10-18T01:16:20.732Z,98.09
2018-10-18T01:18:50.058Z,98.17
2018-10-18T01:21:19.394Z,98.59
2018-10-18T01:23:48.675Z,98.56
2018-10-18T01:26:18.078Z,98.57
2018-10-18T01:28:47.258Z,99.88
2018-10-18T01:31:16.551Z,99.99
2018-10-18T01:33:45.946Z,99.80
2018-10-18T01:36:15.348Z,99.89
2018-10-18T01:38:44.510Z,99.66
2018-10-18T01:41:13.873Z,99.49
2018-10-18T01:43:43.121Z,99.20
2018-10-18T01:46:12.402Z,98.61
2018-10-18T01:48:41.691Z,99.64
2018-10-18T01:51:10.962Z,99.88
2018-10-18T01:53:40.255Z,100.00
2018-10-18T01:56:09.604Z,99.70
2018-10-18T01:58:38.816Z,99.53
2018-10-18T02:01:08.098Z,99.46
2018-10-18T02:03:37.406Z,98.61
2018-10-18T02:06:07.252Z,98.97
2018-10-18T02:08:36.494Z,99.18
2018-10-18T02:11:06.592Z,99.61
2018-10-18T02:13:35.928Z,99.62
2018-10-18T02:16:05.783Z,99.85
2018-10-18T02:18:35.111Z,100.00
2018-10-18T02:21:04.722Z,100.00
2018-10-18T02:23:34.149Z,100.00
2018-10-18T02:26:03.522Z,100.00
2018-10-18T02:28:32.758Z,100.00
2018-10-18T02:31:02.046Z,100.00
2018-10-18T02:33:31.476Z,100.00
2018-10-18T02:36:00.814Z,100.00
2018-10-18T02:38:30.186Z,100.00
2018-10-18T02:40:59.569Z,100.00
2018-10-18T02:43:29.657Z,100.00
2018-10-18T02:45:59.104Z,100.00
2018-10-18T02:48:28.418Z,100.00
2018-10-18T02:50:57.917Z,100.00
2018-10-18T02:53:27.402Z,100.00
2018-10-18T02:55:56.804Z,100.00
2018-10-18T02:58:26.233Z,100.00
2018-10-18T03:00:55.720Z,100.00
2018-10-18T03:06:02.123Z,100.00
2018-10-18T03:08:31.351Z,100.00
2018-10-18T03:11:00.722Z,100.00
2018-10-18T03:13:30.594Z,100.00
2018-10-18T03:15:59.976Z,100.00
2018-10-18T03:18:29.327Z,100.00
2018-10-18T03:20:58.703Z,100.00
2018-10-18T03:23:28.107Z,100.00
2018-10-18T03:25:57.512Z,100.00
2018-10-18T03:28:27.056Z,100.00
2018-10-18T03:30:56.445Z,100.00
2018-10-18T03:33:26.095Z,100.00
2018-10-18T03:35:55.729Z,100.00
2018-10-18T03:38:25.101Z,100.00
2018-10-18T03:40:54.629Z,100.00
2018-10-18T03:43:24.046Z,100.00
2018-10-18T03:45:53.461Z,100.00
2018-10-18T03:48:22.890Z,100.00
2018-10-18T03:50:52.352Z,100.00
2018-10-18T03:53:21.904Z,100.00
2018-10-18T03:55:51.320Z,100.00
2018-10-18T03:58:20.666Z,100.00
2018-10-18T04:00:49.999Z,100.00
2018-10-18T04:03:19.305Z,100.00
2018-10-18T04:05:48.578Z,100.00
2018-10-18T04:08:18.000Z,100.00
2018-10-18T04:10:47.367Z,100.00
2018-10-18T04:13:16.682Z,100.00
2018-10-18T04:15:46.030Z,100.00
2018-10-18T04:18:15.468Z,100.00
2018-10-18T04:20:44.659Z,100.00
2018-10-18T04:23:18.051Z,100.00
2018-10-18T04:25:47.511Z,100.00
2018-10-18T04:28:16.812Z,100.00
2018-10-18T04:30:46.127Z,100.00
2018-10-18T04:33:15.452Z,100.00
2018-10-18T04:35:44.727Z,100.00
2018-10-18T04:38:14.094Z,100.00
2018-10-18T04:40:43.384Z,100.00
2018-10-18T04:43:12.669Z,100.00
2018-10-18T04:45:42.413Z,100.00
2018-10-18T04:48:12.092Z,100.00
2018-10-18T04:50:41.478Z,100.00
2018-10-18T04:53:11.098Z,100.00
2018-10-18T04:55:40.437Z,100.00
2018-10-18T04:58:09.750Z,100.00
2018-10-18T05:00:39.040Z,100.00
2018-10-18T05:03:08.358Z,100.00
2018-10-18T05:05:50.942Z,100.00
2018-10-18T05:08:21.167Z,100.00
2018-10-18T05:10:50.661Z,100.00
2018-10-18T05:13:20.152Z,100.00
2018-10-18T05:15:49.383Z,100.00
2018-10-18T05:18:18.818Z,100.00
2018-10-18T05:20:49.567Z,100.00
2018-10-18T05:23:18.955Z,100.00
2018-10-18T05:25:49.201Z,100.00
2018-10-18T05:28:18.659Z,100.00
2018-10-18T05:30:48.024Z,100.00
2018-10-18T05:33:17.831Z,100.00
2018-10-18T05:35:47.171Z,100.00
2018-10-18T05:38:16.654Z,100.00
2018-10-18T05:40:46.060Z,100.00
2018-10-18T05:43:15.524Z,100.00
2018-10-18T05:45:45.818Z,100.00
2018-10-18T05:48:15.181Z,100.00
2018-10-18T05:50:44.489Z,100.00
2018-10-18T05:53:13.853Z,100.00
2018-10-18T05:55:43.170Z,100.00
2018-10-18T05:58:12.574Z,100.00
2018-10-18T06:00:42.054Z,100.00
2018-10-18T06:03:11.530Z,100.00
2018-10-18T06:05:40.939Z,100.00
2018-10-18T06:08:10.413Z,100.00
2018-10-18T06:10:56.634Z,100.00
2018-10-18T06:13:26.106Z,100.00
2018-10-18T06:15:56.027Z,100.00
2018-10-18T06:18:25.734Z,100.00
2018-10-18T06:20:55.239Z,100.00
2018-10-18T06:23:24.897Z,100.00
2018-10-18T06:25:54.448Z,100.00
2018-10-18T06:28:24.111Z,100.00
2018-10-18T06:30:53.958Z,100.00
2018-10-18T06:33:23.615Z,100.00
2018-10-18T06:35:53.317Z,100.00
2018-10-18T06:38:23.339Z,100.00
2018-10-18T06:40:53.057Z,100.00
2018-10-18T06:43:23.230Z,100.00
2018-10-18T06:45:53.084Z,100.00
2018-10-18T06:48:22.889Z,100.00
2018-10-18T06:50:52.543Z,100.00
2018-10-18T06:53:22.879Z,99.32
2018-10-18T06:55:52.801Z,99.45
2018-10-18T06:58:22.873Z,99.32
2018-10-18T07:00:52.643Z,99.12
2018-10-18T07:03:22.640Z,98.40
2018-10-18T07:05:52.234Z,98.29
2018-10-18T07:08:22.420Z,97.87
2018-10-18T07:10:52.133Z,97.14
2018-10-18T07:13:21.774Z,96.66
2018-10-18T07:15:51.572Z,95.88
2018-10-18T07:18:21.086Z,95.31
2018-10-18T07:20:50.628Z,95.04
2018-10-18T07:23:20.207Z,94.62
2018-10-18T07:25:49.646Z,93.82
2018-10-18T07:28:19.092Z,93.65
2018-10-18T07:30:48.415Z,93.03
2018-10-18T07:33:17.863Z,91.69
2018-10-18T07:35:48.576Z,91.63
2018-10-18T07:38:21.145Z,91.15
2018-10-18T07:40:50.834Z,91.53
2018-10-18T07:43:23.644Z,91.42
2018-10-18T07:45:53.348Z,90.29
2018-10-18T07:48:24.897Z,89.95
2018-10-18T07:50:54.415Z,89.09
2018-10-18T07:53:24.028Z,89.17
2018-10-18T07:55:55.918Z,89.10
2018-10-18T07:58:25.685Z,88.77
2018-10-18T08:00:55.276Z,88.46
2018-10-18T08:03:24.840Z,88.08
2018-10-18T08:05:54.497Z,87.22
2018-10-18T08:08:24.346Z,86.24
2018-10-18T08:10:54.080Z,86.03
2018-10-18T08:13:23.638Z,85.57
2018-10-18T08:15:53.303Z,85.13
2018-10-18T08:18:22.994Z,84.33
2018-10-18T08:20:52.641Z,83.90
2018-10-18T08:23:22.547Z,83.34
2018-10-18T08:25:52.269Z,84.61
2018-10-18T08:28:21.931Z,78.55
2018-10-18T08:30:54.106Z,80.80
2018-10-18T08:33:25.429Z,81.41
2018-10-18T08:35:55.208Z,80.86
2018-10-18T08:38:24.741Z,80.77
2018-10-18T08:40:54.630Z,79.38
2018-10-18T08:43:24.371Z,78.33
2018-10-18T08:45:55.784Z,77.92
2018-10-18T08:48:25.539Z,77.66
2018-10-18T08:50:55.195Z,77.24
2018-10-18T08:53:25.123Z,77.28
2018-10-18T08:55:54.923Z,77.40
2018-10-18T08:58:24.638Z,76.59
2018-10-18T09:00:54.603Z,75.34
2018-10-18T09:03:24.264Z,74.49
2018-10-18T09:05:54.132Z,74.36
2018-10-18T09:08:23.954Z,72.81
2018-10-18T09:10:53.728Z,72.47
2018-10-18T09:13:23.180Z,70.95
2018-10-18T09:15:52.685Z,71.84
2018-10-18T09:18:22.559Z,71.61
2018-10-18T09:20:52.370Z,71.28
2018-10-18T09:23:29.617Z,70.42
2018-10-18T09:25:59.018Z,69.68
2018-10-18T09:28:28.542Z,69.09
2018-10-18T09:31:01.972Z,68.62
2018-10-18T09:33:31.240Z,67.65
2018-10-18T09:36:00.580Z,67.48
2018-10-18T09:38:30.106Z,68.33
2018-10-18T09:41:01.394Z,67.53
2018-10-18T09:43:30.704Z,67.72
2018-10-18T09:46:00.088Z,68.16
2018-10-18T09:48:31.394Z,68.14
2018-10-18T09:51:00.764Z,68.10
2018-10-18T09:53:30.186Z,68.26
2018-10-18T09:55:59.599Z,68.03
2018-10-18T09:58:28.929Z,68.13
2018-10-18T10:01:03.434Z,68.22
2018-10-18T10:03:32.678Z,66.76
2018-10-18T10:06:01.985Z,66.29
2018-10-18T10:08:31.298Z,65.58
2018-10-18T10:11:00.623Z,65.13
2018-10-18T10:13:30.023Z,65.39
2018-10-18T10:15:59.386Z,65.18
2018-10-18T10:18:28.848Z,64.95
2018-10-18T10:20:58.359Z,64.12
2018-10-18T10:23:27.809Z,64.27
2018-10-18T10:25:57.326Z,63.82
2018-10-18T10:28:27.035Z,63.86
2018-10-18T10:30:56.666Z,64.29
2018-10-18T10:33:27.689Z,63.77
2018-10-18T10:35:57.904Z,62.56
2018-10-18T10:38:27.391Z,62.02
2018-10-18T10:40:57.186Z,62.62
2018-10-18T10:43:26.719Z,63.41
2018-10-18T10:45:56.708Z,64.00
2018-10-18T10:48:26.311Z,63.26
2018-10-18T10:50:55.882Z,61.91
2018-10-18T10:53:25.609Z,62.39
2018-10-18T10:55:55.208Z,61.57
2018-10-18T10:58:26.459Z,61.83
2018-10-18T11:01:12.482Z,61.01
2018-10-18T11:03:42.873Z,60.51
2018-10-18T11:06:12.840Z,60.60
2018-10-18T11:08:42.410Z,60.88
2018-10-18T11:11:12.987Z,60.29
2018-10-18T11:13:42.721Z,58.41
2018-10-18T11:16:15.169Z,59.38
2018-10-18T11:18:47.561Z,58.44
2018-10-18T11:21:18.015Z,58.73
2018-10-18T11:23:47.963Z,59.15
2018-10-18T11:26:17.401Z,58.26
2018-10-18T11:28:46.588Z,59.44
2018-10-18T11:31:15.877Z,58.75
2018-10-18T11:33:45.270Z,58.39
2018-10-18T11:36:14.664Z,56.37
2018-10-18T11:38:43.968Z,56.93
2018-10-18T11:41:13.278Z,55.69
2018-10-18T11:43:42.616Z,56.22
2018-10-18T11:46:11.967Z,55.59
2018-10-18T11:48:41.400Z,55.35
2018-10-18T11:51:10.717Z,56.03
2018-10-18T11:53:40.146Z,55.93
2018-10-18T11:56:09.651Z,56.15
2018-10-18T11:58:39.137Z,56.23
2018-10-18T12:01:08.758Z,55.32
2018-10-18T12:03:40.443Z,54.81
2018-10-18T12:06:09.802Z,54.39
2018-10-18T12:08:39.205Z,54.66
2018-10-18T12:11:09.345Z,54.15
2018-10-18T12:13:40.050Z,54.28
2018-10-18T12:16:10.250Z,54.23
2018-10-18T12:18:40.686Z,54.06
2018-10-18T12:21:10.086Z,53.78
2018-10-18T12:23:39.578Z,53.97
2018-10-18T12:26:09.184Z,53.95
2018-10-18T12:28:38.687Z,53.51
2018-10-18T12:31:08.528Z,54.01
2018-10-18T12:33:38.206Z,54.29
2018-10-18T12:36:07.950Z,52.81
2018-10-18T12:38:37.534Z,52.35
2018-10-18T12:41:09.162Z,52.76
2018-10-18T12:43:39.059Z,52.82
2018-10-18T12:46:08.804Z,53.26
2018-10-18T12:48:38.405Z,53.54
2018-10-18T12:51:07.956Z,52.90
2018-10-18T12:53:37.901Z,52.35
2018-10-18T12:56:07.931Z,54.48
2018-10-18T12:58:37.713Z,53.75
2018-10-18T13:01:07.541Z,53.42
2018-10-18T13:03:43.675Z,53.28
2018-10-18T13:06:13.063Z,52.78
2018-10-18T13:08:42.366Z,52.35
2018-10-18T13:11:11.848Z,51.86
2018-10-18T13:13:45.668Z,52.49
2018-10-18T13:16:15.007Z,52.83
2018-10-18T13:18:44.366Z,52.41
2018-10-18T13:21:14.015Z,52.81
2018-10-18T13:23:43.466Z,52.47
2018-10-18T13:26:12.967Z,53.78
2018-10-18T13:28:42.309Z,53.02
2018-10-18T13:31:11.715Z,53.11
2018-10-18T13:33:41.159Z,53.50
2018-10-18T13:36:13.090Z,52.98
2018-10-18T13:38:43.794Z,53.07
2018-10-18T13:41:13.257Z,53.32
2018-10-18T13:43:42.616Z,53.44
2018-10-18T13:46:12.007Z,53.15
2018-10-18T13:48:41.630Z,53.58
2018-10-18T13:51:11.034Z,53.40
2018-10-18T13:53:41.786Z,53.68
2018-10-18T13:56:12.621Z,53.61
2018-10-18T13:58:43.563Z,53.87
2018-10-18T14:01:13.049Z,53.79
2018-10-18T14:03:42.381Z,54.50
2018-10-18T14:06:11.855Z,53.68
2018-10-18T14:08:41.351Z,54.00
2018-10-18T14:11:11.146Z,54.16
2018-10-18T14:13:40.557Z,54.89
2018-10-18T14:16:10.046Z,54.03
2018-10-18T14:18:39.405Z,53.48
2018-10-18T14:21:09.645Z,54.02
2018-10-18T14:23:39.066Z,53.47
2018-10-18T14:26:08.489Z,53.49
2018-10-18T14:28:37.846Z,54.52
2018-10-18T14:31:07.484Z,54.63
2018-10-18T14:33:37.186Z,54.54
2018-10-18T14:36:07.469Z,53.81
2018-10-18T14:38:37.181Z,54.03
2018-10-18T14:41:06.692Z,53.90
2018-10-18T14:43:35.947Z,54.54
2018-10-18T14:46:05.805Z,55.04
2018-10-18T14:48:35.629Z,54.69
2018-10-18T14:51:06.688Z,55.40
2018-10-18T14:53:36.088Z,55.85
2018-10-18T14:56:05.806Z,55.48
2018-10-18T14:58:35.194Z,55.93
2018-10-18T15:01:04.762Z,56.04
2018-10-18T15:03:34.142Z,56.31
2018-10-18T15:06:03.771Z,56.75
2018-10-18T15:08:33.180Z,56.56
2018-10-18T15:11:02.693Z,57.20
2018-10-18T15:13:32.293Z,57.06
2018-10-18T15:16:01.570Z,57.45
2018-10-18T15:18:30.937Z,57.42
2018-10-18T15:21:00.522Z,57.73
2018-10-18T15:23:29.784Z,58.09
2018-10-18T15:25:59.274Z,58.40
2018-10-18T15:28:33.055Z,59.10
2018-10-18T15:31:02.455Z,59.12
2018-10-18T15:33:32.629Z,58.46
2018-10-18T15:36:02.007Z,58.63
2018-10-18T15:38:31.463Z,58.64
2018-10-18T15:41:00.694Z,58.79
2018-10-18T15:43:30.561Z,59.10
2018-10-18T15:46:00.008Z,58.75
2018-10-18T15:48:29.507Z,59.59
2018-10-18T15:50:58.923Z,60.09
2018-10-18T15:53:28.305Z,60.39
2018-10-18T15:55:58.603Z,60.80
2018-10-18T15:58:27.951Z,60.16
2018-10-18T16:00:57.344Z,60.26
2018-10-18T16:03:26.722Z,61.20
2018-10-18T16:05:56.580Z,61.40
2018-10-18T16:08:26.228Z,61.84
2018-10-18T16:10:55.562Z,62.15
2018-10-18T16:13:25.033Z,61.96
2018-10-18T16:15:56.034Z,63.13
2018-10-18T16:18:25.476Z,63.31
2018-10-18T16:20:54.970Z,63.53
2018-10-18T16:23:24.350Z,64.19
2018-10-18T16:25:53.909Z,64.14
2018-10-18T16:28:23.231Z,64.07
2018-10-18T16:30:52.559Z,64.47
2018-10-18T16:33:21.944Z,64.86
2018-10-18T16:35:51.340Z,65.38
2018-10-18T16:38:20.759Z,65.37
2018-10-18T16:40:51.070Z,65.58
2018-10-18T16:43:20.337Z,66.43
2018-10-18T16:45:49.650Z,66.64
2018-10-18T16:48:19.049Z,67.18
2018-10-18T16:50:48.291Z,67.14
2018-10-18T16:53:17.552Z,66.93
2018-10-18T16:55:46.837Z,67.59
2018-10-18T16:58:16.187Z,67.83
2018-10-18T17:00:45.486Z,67.73
2018-10-18T17:03:14.803Z,67.77
2018-10-18T17:05:44.109Z,67.71
2018-10-18T17:08:13.483Z,68.03
2018-10-18T17:10:42.679Z,68.27
2018-10-18T17:13:11.963Z,69.12
2018-10-18T17:15:41.277Z,69.35
2018-10-18T17:18:10.796Z,69.61
2018-10-18T17:20:44.778Z,69.56
2018-10-18T17:23:18.102Z,69.59
2018-10-18T17:25:47.391Z,69.38
2018-10-18T17:28:16.678Z,69.67
2018-10-18T17:30:45.975Z,70.31
2018-10-18T17:33:15.319Z,70.76
2018-10-18T17:35:44.656Z,71.08
2018-10-18T17:38:14.005Z,70.65
2018-10-18T17:40:43.401Z,70.99
2018-10-18T17:43:12.567Z,71.98
2018-10-18T17:45:41.898Z,72.44
2018-10-18T17:48:11.267Z,73.03
2018-10-18T17:50:40.687Z,73.74
2018-10-18T17:53:10.092Z,74.08
2018-10-18T17:55:39.438Z,74.13
2018-10-18T17:58:09.024Z,74.71
2018-10-18T18:00:38.410Z,75.07
2018-10-18T18:03:07.478Z,74.36
2018-10-18T18:05:37.292Z,74.02
2018-10-18T18:08:06.921Z,74.63
2018-10-18T18:10:36.238Z,74.26
2018-10-18T18:13:05.873Z,75.46
2018-10-18T18:15:35.316Z,76.07
2018-10-18T18:20:41.755Z,78.00
2018-10-18T18:23:11.134Z,78.48
2018-10-18T18:25:40.571Z,78.64
2018-10-18T18:28:09.945Z,79.25
2018-10-18T18:30:41.299Z,80.19
2018-10-18T18:33:10.601Z,80.29
2018-10-18T18:35:42.202Z,81.74
2018-10-18T18:38:11.515Z,81.59
2018-10-18T18:40:40.906Z,82.36
2018-10-18T18:43:10.273Z,82.74
2018-10-18T18:45:39.911Z,83.37
2018-10-18T18:48:09.368Z,84.26
2018-10-18T18:50:38.900Z,84.03
2018-10-18T18:53:08.358Z,84.48
2018-10-18T18:55:37.860Z,85.11
2018-10-18T18:58:07.371Z,85.83
2018-10-18T19:00:37.087Z,85.92
2018-10-18T19:03:07.049Z,84.96
2018-10-18T19:05:36.640Z,85.16
2018-10-18T19:08:06.557Z,84.83
2018-10-18T19:10:35.955Z,85.76
2018-10-18T19:13:05.844Z,86.27
2018-10-18T19:15:35.435Z,86.77
2018-10-18T19:18:04.917Z,86.96
2018-10-18T19:20:34.322Z,86.66
2018-10-18T19:23:03.899Z,87.17
2018-10-18T19:25:33.235Z,86.07
2018-10-18T19:28:02.911Z,85.58
2018-10-18T19:30:32.282Z,85.14
2018-10-18T19:33:01.609Z,84.95
2018-10-18T19:35:30.879Z,83.56
2018-10-18T19:38:00.669Z,83.40
2018-10-18T19:40:29.866Z,83.60
2018-10-18T19:42:59.175Z,84.19
2018-10-18T19:45:28.511Z,85.39
2018-10-18T19:47:58.956Z,85.72
2018-10-18T19:50:28.412Z,86.37
2018-10-18T19:52:57.747Z,86.53
2018-10-18T19:55:27.117Z,87.69
2018-10-18T19:57:56.327Z,88.51
2018-10-18T20:00:25.878Z,89.22
2018-10-18T20:02:55.765Z,90.41
2018-10-18T20:05:25.249Z,91.50
2018-10-18T20:07:54.881Z,91.19
2018-10-18T20:10:24.391Z,92.22
2018-10-18T20:12:53.855Z,92.27
2018-10-18T20:15:23.256Z,92.31
2018-10-18T20:17:52.789Z,93.24
2018-10-18T20:20:22.081Z,93.43
2018-10-18T20:22:51.419Z,93.38
2018-10-18T20:25:20.758Z,93.99
2018-10-18T20:27:50.132Z,93.67
2018-10-18T20:30:19.502Z,94.23
2018-10-18T20:32:48.818Z,94.76
2018-10-18T20:35:18.098Z,94.50
2018-10-18T20:37:47.394Z,95.50
2018-10-18T20:40:16.772Z,95.53
2018-10-18T20:42:46.179Z,95.18
2018-10-18T20:45:20.633Z,94.91
2018-10-18T20:47:49.981Z,95.32
2018-10-18T20:50:19.710Z,95.99
2018-10-18T20:52:49.113Z,96.83
2018-10-18T20:55:18.374Z,98.05
2018-10-18T20:57:47.890Z,98.60
2018-10-18T21:00:17.342Z,98.83
2018-10-18T21:02:46.719Z,98.99
2018-10-18T21:05:16.061Z,98.95
2018-10-18T21:07:45.765Z,99.62
2018-10-18T21:10:15.147Z,100.00
2018-10-18T21:12:44.575Z,100.00
2018-10-18T21:15:13.998Z,99.77
2018-10-18T21:17:43.295Z,100.00
2018-10-18T21:20:15.495Z,100.00
2018-10-18T21:22:47.947Z,100.00
2018-10-18T21:25:17.288Z,100.00
2018-10-18T21:27:46.602Z,100.00
2018-10-18T21:30:15.844Z,100.00
2018-10-18T21:32:45.210Z,100.00
2018-10-18T21:35:14.547Z,100.00
2018-10-18T21:37:43.839Z,100.00
2018-10-18T21:40:13.243Z,100.00
2018-10-18T21:42:42.634Z,100.00
2018-10-18T21:45:12.315Z,100.00
2018-10-18T21:47:41.842Z,100.00
2018-10-18T21:50:11.439Z,100.00
2018-10-18T21:52:40.950Z,100.00
2018-10-18T21:55:10.588Z,100.00
2018-10-18T21:57:40.073Z,100.00
2018-10-18T22:00:17.640Z,100.00
2018-10-18T22:02:47.487Z,100.00
2018-10-18T22:05:16.869Z,100.00
2018-10-18T22:07:46.091Z,100.00
2018-10-18T22:10:15.384Z,100.00
2018-10-18T22:12:44.739Z,100.00
2018-10-18T22:15:14.256Z,100.00
2018-10-18T22:17:43.691Z,100.00
2018-10-18T22:20:13.123Z,100.00
2018-10-18T22:22:42.427Z,100.00
2018-10-18T22:25:11.822Z,100.00
2018-10-18T22:27:41.278Z,100.00
2018-10-18T22:30:10.840Z,100.00
2018-10-18T22:32:40.245Z,100.00
2018-10-18T22:35:09.720Z,100.00
2018-10-18T22:37:39.107Z,100.00
2018-10-18T22:40:08.920Z,100.00
2018-10-18T22:42:38.386Z,100.00
2018-10-18T22:45:08.607Z,100.00
2018-10-18T22:47:37.955Z,100.00
2018-10-18T22:50:07.571Z,100.00
2018-10-18T22:52:37.072Z,100.00
2018-10-18T22:55:07.113Z,100.00
2018-10-18T22:57:36.511Z,100.00
2018-10-18T23:00:07.634Z,100.00
2018-10-18T23:02:37.040Z,100.00
2018-10-18T23:05:06.688Z,100.00
2018-10-18T23:07:36.377Z,100.00
2018-10-18T23:10:06.529Z,100.00
2018-10-18T23:12:35.905Z,100.00
2018-10-18T23:15:06.918Z,100.00
2018-10-18T23:17:36.198Z,100.00
2018-10-18T23:20:06.762Z,100.00
2018-10-18T23:22:36.231Z,100.00
2018-10-18T23:25:06.385Z,100.00
2018-10-18T23:27:35.767Z,100.00
2018-10-18T23:30:06.330Z,100.00
2018-10-18T23:32:35.662Z,100.00
2018-10-18T23:35:05.322Z,100.00
2018-10-18T23:37:34.533Z,100.00
2018-10-18T23:40:04.305Z,100.00
2018-10-18T23:42:34.685Z,100.00
2018-10-18T23:45:04.110Z,100.00
2018-10-18T23:47:33.386Z,100.00
2018-10-18T23:50:02.734Z,100.00
2018-10-18T23:52:32.188Z,100.00
2018-10-18T23:55:01.640Z,100.00
2018-10-18T23:57:31.027Z,100.00
